Аэропорт: Гродно. Гродно

ICAO: UMMG

METAR:
2020-06-01 03:00:00
UMMG 010300Z 35003MPS CAVOK 08/02 Q1018 NOSIG
METAR:
Информация по данной станции не доступна